sensor_id;sensor_type;location;lat;lon;timestamp;temperature;humidity
55721;DHT22;41626;53.098;6.168;2022-07-15T00:00:18;14.40;99.90
55721;DHT22;41626;53.098;6.168;2022-07-15T00:02:44;14.40;99.90
55721;DHT22;41626;53.098;6.168;2022-07-15T00:05:10;14.40;99.90
55721;DHT22;41626;53.098;6.168;2022-07-15T00:07:36;14.40;99.90
55721;DHT22;41626;53.098;6.168;2022-07-15T00:10:03;14.40;99.90
55721;DHT22;41626;53.098;6.168;2022-07-15T00:12:49;14.40;99.90
55721;DHT22;41626;53.098;6.168;2022-07-15T00:15:16;14.50;99.90
55721;DHT22;41626;53.098;6.168;2022-07-15T00:17:42;14.40;99.90
55721;DHT22;41626;53.098;6.168;2022-07-15T00:20:08;14.40;99.90
55721;DHT22;41626;53.098;6.168;2022-07-15T00:22:35;14.40;99.90
55721;DHT22;41626;53.098;6.168;2022-07-15T00:25:01;14.60;99.90
55721;DHT22;41626;53.098;6.168;2022-07-15T00:27:27;14.50;99.90
55721;DHT22;41626;53.098;6.168;2022-07-15T00:29:53;14.50;99.90
55721;DHT22;41626;53.098;6.168;2022-07-15T00:32:18;14.50;99.90
55721;DHT22;41626;53.098;6.168;2022-07-15T00:34:44;14.60;99.90
55721;DHT22;41626;53.098;6.168;2022-07-15T00:37:10;14.50;99.90
55721;DHT22;41626;53.098;6.168;2022-07-15T00:39:35;14.60;99.90
55721;DHT22;41626;53.098;6.168;2022-07-15T00:42:01;14.50;99.90
55721;DHT22;41626;53.098;6.168;2022-07-15T00:44:27;14.50;99.90
55721;DHT22;41626;53.098;6.168;2022-07-15T00:46:53;14.50;99.90
55721;DHT22;41626;53.098;6.168;2022-07-15T00:49:19;14.40;99.90
55721;DHT22;41626;53.098;6.168;2022-07-15T00:51:47;14.40;99.90
55721;DHT22;41626;53.098;6.168;2022-07-15T00:54:15;14.40;99.90
55721;DHT22;41626;53.098;6.168;2022-07-15T00:56:46;14.40;99.90
55721;DHT22;41626;53.098;6.168;2022-07-15T00:59:12;14.30;99.90
55721;DHT22;41626;53.098;6.168;2022-07-15T01:01:40;14.30;99.90
55721;DHT22;41626;53.098;6.168;2022-07-15T01:04:06;14.40;99.90
55721;DHT22;41626;53.098;6.168;2022-07-15T01:06:32;14.30;99.90
55721;DHT22;41626;53.098;6.168;2022-07-15T01:08:59;14.30;99.90
55721;DHT22;41626;53.098;6.168;2022-07-15T01:11:25;14.30;99.90
55721;DHT22;41626;53.098;6.168;2022-07-15T01:13:51;14.30;99.90
55721;DHT22;41626;53.098;6.168;2022-07-15T01:16:17;14.30;99.90
55721;DHT22;41626;53.098;6.168;2022-07-15T01:18:43;14.30;99.90
55721;DHT22;41626;53.098;6.168;2022-07-15T01:21:08;14.20;99.90
55721;DHT22;41626;53.098;6.168;2022-07-15T01:23:34;14.20;99.90
55721;DHT22;41626;53.098;6.168;2022-07-15T01:26:01;14.10;99.90
55721;DHT22;41626;53.098;6.168;2022-07-15T01:28:27;14.10;99.90
55721;DHT22;41626;53.098;6.168;2022-07-15T01:30:53;14.00;99.90
55721;DHT22;41626;53.098;6.168;2022-07-15T01:33:18;14.00;99.90
55721;DHT22;41626;53.098;6.168;2022-07-15T01:35:44;14.00;99.90
55721;DHT22;41626;53.098;6.168;2022-07-15T01:38:10;14.10;99.90
55721;DHT22;41626;53.098;6.168;2022-07-15T01:40:36;14.00;99.90
55721;DHT22;41626;53.098;6.168;2022-07-15T01:43:01;14.10;99.90
55721;DHT22;41626;53.098;6.168;2022-07-15T01:45:27;14.00;99.90
55721;DHT22;41626;53.098;6.168;2022-07-15T01:47:53;13.90;99.90
55721;DHT22;41626;53.098;6.168;2022-07-15T01:50:19;14.00;99.90
55721;DHT22;41626;53.098;6.168;2022-07-15T01:52:45;14.00;99.90
55721;DHT22;41626;53.098;6.168;2022-07-15T01:55:11;14.00;99.90
55721;DHT22;41626;53.098;6.168;2022-07-15T01:57:38;13.90;99.90
55721;DHT22;41626;53.098;6.168;2022-07-15T02:00:05;13.90;99.90
55721;DHT22;41626;53.098;6.168;2022-07-15T02:02:32;13.80;99.90
55721;DHT22;41626;53.098;6.168;2022-07-15T02:04:57;13.80;99.90
55721;DHT22;41626;53.098;6.168;2022-07-15T02:07:23;13.80;99.90
55721;DHT22;41626;53.098;6.168;2022-07-15T02:09:48;13.60;99.90
55721;DHT22;41626;53.098;6.168;2022-07-15T02:12:14;13.60;99.90
55721;DHT22;41626;53.098;6.168;2022-07-15T02:14:40;13.50;99.90
55721;DHT22;41626;53.098;6.168;2022-07-15T02:17:06;13.50;99.90
55721;DHT22;41626;53.098;6.168;2022-07-15T02:19:33;13.50;99.90
55721;DHT22;41626;53.098;6.168;2022-07-15T02:21:58;13.30;99.90
55721;DHT22;41626;53.098;6.168;2022-07-15T02:24:24;13.30;99.90
55721;DHT22;41626;53.098;6.168;2022-07-15T02:26:49;13.20;99.90
55721;DHT22;41626;53.098;6.168;2022-07-15T02:29:16;13.20;99.90
55721;DHT22;41626;53.098;6.168;2022-07-15T02:31:42;13.20;99.90
55721;DHT22;41626;53.098;6.168;2022-07-15T02:34:08;13.10;99.90
55721;DHT22;41626;53.098;6.168;2022-07-15T02:36:34;13.00;99.90
55721;DHT22;41626;53.098;6.168;2022-07-15T02:39:01;13.00;99.90
55721;DHT22;41626;53.098;6.168;2022-07-15T02:41:28;12.90;99.90
55721;DHT22;41626;53.098;6.168;2022-07-15T02:43:54;12.90;99.90
55721;DHT22;41626;53.098;6.168;2022-07-15T02:46:20;12.80;99.90
55721;DHT22;41626;53.098;6.168;2022-07-15T02:48:45;12.80;99.90
55721;DHT22;41626;53.098;6.168;2022-07-15T02:51:12;12.80;99.90
55721;DHT22;41626;53.098;6.168;2022-07-15T02:53:38;12.70;99.90
55721;DHT22;41626;53.098;6.168;2022-07-15T02:56:04;12.70;99.90
55721;DHT22;41626;53.098;6.168;2022-07-15T02:58:31;12.60;99.90
55721;DHT22;41626;53.098;6.168;2022-07-15T03:00:57;12.70;99.90
55721;DHT22;41626;53.098;6.168;2022-07-15T03:03:23;12.70;99.90
55721;DHT22;41626;53.098;6.168;2022-07-15T03:05:49;12.70;99.90
55721;DHT22;41626;53.098;6.168;2022-07-15T03:08:18;12.70;99.90
55721;DHT22;41626;53.098;6.168;2022-07-15T03:10:44;12.60;99.90
55721;DHT22;41626;53.098;6.168;2022-07-15T03:13:09;12.50;99.90
55721;DHT22;41626;53.098;6.168;2022-07-15T03:15:35;12.50;99.90
55721;DHT22;41626;53.098;6.168;2022-07-15T03:18:01;12.30;99.90
55721;DHT22;41626;53.098;6.168;2022-07-15T03:20:26;12.30;99.90
55721;DHT22;41626;53.098;6.168;2022-07-15T03:22:52;12.30;99.90
55721;DHT22;41626;53.098;6.168;2022-07-15T03:25:18;12.30;99.90
55721;DHT22;41626;53.098;6.168;2022-07-15T03:27:43;12.30;99.90
55721;DHT22;41626;53.098;6.168;2022-07-15T03:30:09;12.30;99.90
55721;DHT22;41626;53.098;6.168;2022-07-15T03:32:35;12.30;99.90
55721;DHT22;41626;53.098;6.168;2022-07-15T03:35:01;12.30;99.90
55721;DHT22;41626;53.098;6.168;2022-07-15T03:37:27;12.30;99.90
55721;DHT22;41626;53.098;6.168;2022-07-15T03:39:53;12.30;99.90
55721;DHT22;41626;53.098;6.168;2022-07-15T03:42:18;12.30;99.90
55721;DHT22;41626;53.098;6.168;2022-07-15T03:44:44;12.30;99.90
55721;DHT22;41626;53.098;6.168;2022-07-15T03:47:10;12.30;99.90
55721;DHT22;41626;53.098;6.168;2022-07-15T03:49:36;12.40;99.90
55721;DHT22;41626;53.098;6.168;2022-07-15T03:52:01;12.40;99.90
55721;DHT22;41626;53.098;6.168;2022-07-15T03:54:27;12.30;99.90
55721;DHT22;41626;53.098;6.168;2022-07-15T03:56:53;12.30;99.90
55721;DHT22;41626;53.098;6.168;2022-07-15T03:59:19;12.30;99.90
55721;DHT22;41626;53.098;6.168;2022-07-15T04:01:46;12.30;99.90
55721;DHT22;41626;53.098;6.168;2022-07-15T04:04:14;12.50;99.90
55721;DHT22;41626;53.098;6.168;2022-07-15T04:06:39;12.50;99.90
55721;DHT22;41626;53.098;6.168;2022-07-15T04:09:05;12.50;99.90
55721;DHT22;41626;53.098;6.168;2022-07-15T04:11:31;12.50;99.90
55721;DHT22;41626;53.098;6.168;2022-07-15T04:13:56;12.50;99.90
55721;DHT22;41626;53.098;6.168;2022-07-15T04:16:22;12.70;99.90
55721;DHT22;41626;53.098;6.168;2022-07-15T04:18:48;12.70;99.90
55721;DHT22;41626;53.098;6.168;2022-07-15T04:21:16;12.70;99.90
55721;DHT22;41626;53.098;6.168;2022-07-15T04:23:41;12.70;99.90
55721;DHT22;41626;53.098;6.168;2022-07-15T04:26:07;12.70;99.90
55721;DHT22;41626;53.098;6.168;2022-07-15T04:28:32;12.70;99.90
55721;DHT22;41626;53.098;6.168;2022-07-15T04:30:58;12.70;99.90
55721;DHT22;41626;53.098;6.168;2022-07-15T04:33:24;12.70;99.90
55721;DHT22;41626;53.098;6.168;2022-07-15T04:35:49;12.70;99.90
55721;DHT22;41626;53.098;6.168;2022-07-15T04:38:15;12.80;99.90
55721;DHT22;41626;53.098;6.168;2022-07-15T04:40:41;12.80;99.90
55721;DHT22;41626;53.098;6.168;2022-07-15T04:43:08;12.80;99.90
55721;DHT22;41626;53.098;6.168;2022-07-15T04:45:34;12.80;99.90
55721;DHT22;41626;53.098;6.168;2022-07-15T04:48:00;12.90;99.90
55721;DHT22;41626;53.098;6.168;2022-07-15T04:50:26;12.90;99.90
55721;DHT22;41626;53.098;6.168;2022-07-15T04:53:10;13.00;99.90
55721;DHT22;41626;53.098;6.168;2022-07-15T04:55:36;13.20;99.90
55721;DHT22;41626;53.098;6.168;2022-07-15T04:58:02;13.20;99.90
55721;DHT22;41626;53.098;6.168;2022-07-15T05:00:27;13.50;99.90
55721;DHT22;41626;53.098;6.168;2022-07-15T05:02:53;13.50;99.90
55721;DHT22;41626;53.098;6.168;2022-07-15T05:05:19;13.60;99.90
55721;DHT22;41626;53.098;6.168;2022-07-15T05:07:45;13.70;99.90
55721;DHT22;41626;53.098;6.168;2022-07-15T05:10:11;13.80;99.90
55721;DHT22;41626;53.098;6.168;2022-07-15T05:12:37;13.90;99.90
55721;DHT22;41626;53.098;6.168;2022-07-15T05:15:03;14.00;99.90
55721;DHT22;41626;53.098;6.168;2022-07-15T05:17:29;14.10;99.90
55721;DHT22;41626;53.098;6.168;2022-07-15T05:19:54;14.10;99.90
55721;DHT22;41626;53.098;6.168;2022-07-15T05:22:20;14.20;99.90
55721;DHT22;41626;53.098;6.168;2022-07-15T05:24:46;14.10;99.90
55721;DHT22;41626;53.098;6.168;2022-07-15T05:27:12;14.10;99.90
55721;DHT22;41626;53.098;6.168;2022-07-15T05:29:38;14.20;99.90
55721;DHT22;41626;53.098;6.168;2022-07-15T05:32:04;14.20;99.90
55721;DHT22;41626;53.098;6.168;2022-07-15T05:34:30;14.20;99.90
55721;DHT22;41626;53.098;6.168;2022-07-15T05:36:55;14.20;99.90
55721;DHT22;41626;53.098;6.168;2022-07-15T05:39:22;14.30;99.90
55721;DHT22;41626;53.098;6.168;2022-07-15T05:41:48;14.30;99.90
55721;DHT22;41626;53.098;6.168;2022-07-15T05:44:13;14.40;99.90
55721;DHT22;41626;53.098;6.168;2022-07-15T05:46:39;14.40;99.90
55721;DHT22;41626;53.098;6.168;2022-07-15T05:49:06;14.50;99.90
55721;DHT22;41626;53.098;6.168;2022-07-15T05:51:31;14.40;99.90
55721;DHT22;41626;53.098;6.168;2022-07-15T05:53:59;14.40;99.90
55721;DHT22;41626;53.098;6.168;2022-07-15T05:56:25;14.60;99.90
55721;DHT22;41626;53.098;6.168;2022-07-15T05:58:51;14.60;99.90
55721;DHT22;41626;53.098;6.168;2022-07-15T06:01:17;14.60;99.90
55721;DHT22;41626;53.098;6.168;2022-07-15T06:03:42;14.70;99.90
55721;DHT22;41626;53.098;6.168;2022-07-15T06:06:08;14.80;99.90
55721;DHT22;41626;53.098;6.168;2022-07-15T06:08:34;14.90;99.90
55721;DHT22;41626;53.098;6.168;2022-07-15T06:11:00;15.00;99.90
55721;DHT22;41626;53.098;6.168;2022-07-15T06:13:26;15.10;99.90
55721;DHT22;41626;53.098;6.168;2022-07-15T06:15:52;15.10;99.90
55721;DHT22;41626;53.098;6.168;2022-07-15T06:18:18;15.20;99.90
55721;DHT22;41626;53.098;6.168;2022-07-15T06:20:44;15.20;99.90
55721;DHT22;41626;53.098;6.168;2022-07-15T06:23:09;15.20;99.90
55721;DHT22;41626;53.098;6.168;2022-07-15T06:25:35;15.20;99.90
55721;DHT22;41626;53.098;6.168;2022-07-15T06:28:02;15.30;99.90
55721;DHT22;41626;53.098;6.168;2022-07-15T06:30:28;15.30;99.90
55721;DHT22;41626;53.098;6.168;2022-07-15T06:32:54;15.30;99.90
55721;DHT22;41626;53.098;6.168;2022-07-15T06:35:20;15.40;99.90
55721;DHT22;41626;53.098;6.168;2022-07-15T06:37:46;15.50;99.90
55721;DHT22;41626;53.098;6.168;2022-07-15T06:40:12;15.60;99.90
55721;DHT22;41626;53.098;6.168;2022-07-15T06:42:37;15.70;99.90
55721;DHT22;41626;53.098;6.168;2022-07-15T06:45:04;15.70;99.90
55721;DHT22;41626;53.098;6.168;2022-07-15T06:47:30;15.80;99.90
55721;DHT22;41626;53.098;6.168;2022-07-15T06:49:56;15.90;99.90
55721;DHT22;41626;53.098;6.168;2022-07-15T06:52:22;15.90;99.90
55721;DHT22;41626;53.098;6.168;2022-07-15T06:54:47;15.90;99.90
55721;DHT22;41626;53.098;6.168;2022-07-15T06:57:13;16.20;99.90
55721;DHT22;41626;53.098;6.168;2022-07-15T06:59:39;16.70;99.90
55721;DHT22;41626;53.098;6.168;2022-07-15T07:02:05;17.10;99.90
55721;DHT22;41626;53.098;6.168;2022-07-15T07:04:31;17.30;99.90
55721;DHT22;41626;53.098;6.168;2022-07-15T07:06:57;18.20;99.90
55721;DHT22;41626;53.098;6.168;2022-07-15T07:09:22;18.80;99.90
55721;DHT22;41626;53.098;6.168;2022-07-15T07:11:48;19.10;99.90
55721;DHT22;41626;53.098;6.168;2022-07-15T07:14:14;18.00;99.90
55721;DHT22;41626;53.098;6.168;2022-07-15T07:16:39;17.40;99.90
55721;DHT22;41626;53.098;6.168;2022-07-15T07:19:05;17.10;99.90
55721;DHT22;41626;53.098;6.168;2022-07-15T07:21:30;16.90;99.90
55721;DHT22;41626;53.098;6.168;2022-07-15T07:23:59;17.60;99.90
55721;DHT22;41626;53.098;6.168;2022-07-15T07:26:25;19.10;99.90
55721;DHT22;41626;53.098;6.168;2022-07-15T07:28:51;19.70;99.90
55721;DHT22;41626;53.098;6.168;2022-07-15T07:31:17;20.50;99.90
55721;DHT22;41626;53.098;6.168;2022-07-15T07:33:43;20.90;99.90
55721;DHT22;41626;53.098;6.168;2022-07-15T07:36:08;21.60;99.90
55721;DHT22;41626;53.098;6.168;2022-07-15T07:38:35;21.70;99.90
55721;DHT22;41626;53.098;6.168;2022-07-15T07:41:01;20.70;99.90
55721;DHT22;41626;53.098;6.168;2022-07-15T07:43:27;19.50;99.90
55721;DHT22;41626;53.098;6.168;2022-07-15T07:45:53;18.80;99.90
55721;DHT22;41626;53.098;6.168;2022-07-15T07:48:20;19.30;99.90
55721;DHT22;41626;53.098;6.168;2022-07-15T07:50:46;18.60;99.90
55721;DHT22;41626;53.098;6.168;2022-07-15T07:53:13;17.90;99.90
55721;DHT22;41626;53.098;6.168;2022-07-15T07:55:38;17.50;99.90
55721;DHT22;41626;53.098;6.168;2022-07-15T07:58:05;17.40;99.90
55721;DHT22;41626;53.098;6.168;2022-07-15T08:00:31;17.60;99.90
55721;DHT22;41626;53.098;6.168;2022-07-15T08:02:58;17.80;99.90
55721;DHT22;41626;53.098;6.168;2022-07-15T08:05:25;17.90;99.90
55721;DHT22;41626;53.098;6.168;2022-07-15T08:08:04;18.20;99.90
55721;DHT22;41626;53.098;6.168;2022-07-15T08:10:30;18.70;99.90
55721;DHT22;41626;53.098;6.168;2022-07-15T08:12:56;19.10;99.90
55721;DHT22;41626;53.098;6.168;2022-07-15T08:15:21;19.50;99.90
55721;DHT22;41626;53.098;6.168;2022-07-15T08:17:47;19.70;99.90
55721;DHT22;41626;53.098;6.168;2022-07-15T08:20:13;19.10;99.90
55721;DHT22;41626;53.098;6.168;2022-07-15T08:22:38;18.90;99.90
55721;DHT22;41626;53.098;6.168;2022-07-15T08:25:05;18.70;99.90
55721;DHT22;41626;53.098;6.168;2022-07-15T08:27:31;18.20;99.90
55721;DHT22;41626;53.098;6.168;2022-07-15T08:29:57;18.30;99.90
55721;DHT22;41626;53.098;6.168;2022-07-15T08:32:23;19.00;99.90
55721;DHT22;41626;53.098;6.168;2022-07-15T08:34:50;19.60;99.90
55721;DHT22;41626;53.098;6.168;2022-07-15T08:37:15;19.20;99.90
55721;DHT22;41626;53.098;6.168;2022-07-15T08:39:42;18.80;99.90
55721;DHT22;41626;53.098;6.168;2022-07-15T08:42:07;18.70;99.90
55721;DHT22;41626;53.098;6.168;2022-07-15T08:44:35;18.70;99.90
55721;DHT22;41626;53.098;6.168;2022-07-15T08:47:03;18.70;99.90
55721;DHT22;41626;53.098;6.168;2022-07-15T08:49:31;18.40;99.90
55721;DHT22;41626;53.098;6.168;2022-07-15T08:51:58;18.10;99.90
55721;DHT22;41626;53.098;6.168;2022-07-15T08:54:26;18.00;99.90
55721;DHT22;41626;53.098;6.168;2022-07-15T08:56:52;18.00;99.90
55721;DHT22;41626;53.098;6.168;2022-07-15T08:59:18;18.10;99.90
55721;DHT22;41626;53.098;6.168;2022-07-15T09:01:45;18.20;99.90
55721;DHT22;41626;53.098;6.168;2022-07-15T09:04:12;18.70;99.90
55721;DHT22;41626;53.098;6.168;2022-07-15T09:06:40;18.50;99.90
55721;DHT22;41626;53.098;6.168;2022-07-15T09:09:24;18.30;99.90
55721;DHT22;41626;53.098;6.168;2022-07-15T09:12:06;18.20;99.90
55721;DHT22;41626;53.098;6.168;2022-07-15T09:14:34;18.00;99.90
55721;DHT22;41626;53.098;6.168;2022-07-15T09:20:05;18.70;99.90
55721;DHT22;41626;53.098;6.168;2022-07-15T09:22:34;18.70;99.90
55721;DHT22;41626;53.098;6.168;2022-07-15T09:25:12;19.00;99.90
55721;DHT22;41626;53.098;6.168;2022-07-15T09:27:39;18.80;99.90
55721;DHT22;41626;53.098;6.168;2022-07-15T09:33:00;18.30;99.90
55721;DHT22;41626;53.098;6.168;2022-07-15T09:35:45;18.30;99.90
55721;DHT22;41626;53.098;6.168;2022-07-15T09:41:00;19.40;99.90
55721;DHT22;41626;53.098;6.168;2022-07-15T09:43:27;19.30;99.90
55721;DHT22;41626;53.098;6.168;2022-07-15T09:46:00;19.00;99.90
55721;DHT22;41626;53.098;6.168;2022-07-15T09:48:27;18.80;99.90
55721;DHT22;41626;53.098;6.168;2022-07-15T09:50:58;18.70;99.90
55721;DHT22;41626;53.098;6.168;2022-07-15T09:53:25;18.40;99.90
55721;DHT22;41626;53.098;6.168;2022-07-15T09:55:52;18.30;99.90
55721;DHT22;41626;53.098;6.168;2022-07-15T09:58:18;18.40;99.90
55721;DHT22;41626;53.098;6.168;2022-07-15T10:00:45;18.60;99.90
55721;DHT22;41626;53.098;6.168;2022-07-15T10:03:11;19.10;99.90
55721;DHT22;41626;53.098;6.168;2022-07-15T10:05:39;19.10;99.90
55721;DHT22;41626;53.098;6.168;2022-07-15T10:08:06;19.70;99.90
55721;DHT22;41626;53.098;6.168;2022-07-15T10:10:35;20.00;99.90
55721;DHT22;41626;53.098;6.168;2022-07-15T10:16:43;19.80;99.90
55721;DHT22;41626;53.098;6.168;2022-07-15T10:27:22;20.30;99.90
55721;DHT22;41626;53.098;6.168;2022-07-15T10:29:52;20.00;99.90
55721;DHT22;41626;53.098;6.168;2022-07-15T10:32:18;19.70;99.90
55721;DHT22;41626;53.098;6.168;2022-07-15T10:34:44;19.60;99.90
55721;DHT22;41626;53.098;6.168;2022-07-15T10:37:11;19.20;99.90
55721;DHT22;41626;53.098;6.168;2022-07-15T10:42:11;19.10;99.90
55721;DHT22;41626;53.098;6.168;2022-07-15T10:47:26;19.20;99.90
55721;DHT22;41626;53.098;6.168;2022-07-15T10:49:52;19.10;99.90
55721;DHT22;41626;53.098;6.168;2022-07-15T10:52:22;19.10;99.90
55721;DHT22;41626;53.098;6.168;2022-07-15T11:03:19;19.20;99.90
55721;DHT22;41626;53.098;6.168;2022-07-15T11:13:43;19.50;99.90
55721;DHT22;41626;53.098;6.168;2022-07-15T11:16:14;19.30;99.90
55721;DHT22;41626;53.098;6.168;2022-07-15T11:18:54;19.30;99.90
55721;DHT22;41626;53.098;6.168;2022-07-15T11:21:21;19.30;99.90
55721;DHT22;41626;53.098;6.168;2022-07-15T11:23:48;19.40;99.90
55721;DHT22;41626;53.098;6.168;2022-07-15T11:26:15;19.60;99.90
55721;DHT22;41626;53.098;6.168;2022-07-15T11:28:51;19.70;99.90
55721;DHT22;41626;53.098;6.168;2022-07-15T11:31:17;19.30;99.90
55721;DHT22;41626;53.098;6.168;2022-07-15T11:33:43;19.00;99.90
55721;DHT22;41626;53.098;6.168;2022-07-15T11:36:17;18.70;99.90
55721;DHT22;41626;53.098;6.168;2022-07-15T11:38:43;18.70;99.90
55721;DHT22;41626;53.098;6.168;2022-07-15T11:41:09;18.70;99.90
55721;DHT22;41626;53.098;6.168;2022-07-15T11:44:05;18.80;99.90
55721;DHT22;41626;53.098;6.168;2022-07-15T11:46:49;19.00;99.90
55721;DHT22;41626;53.098;6.168;2022-07-15T11:49:27;20.00;99.90
55721;DHT22;41626;53.098;6.168;2022-07-15T11:51:53;20.50;99.90
55721;DHT22;41626;53.098;6.168;2022-07-15T11:54:20;20.30;99.90
55721;DHT22;41626;53.098;6.168;2022-07-15T11:57:06;19.90;99.90
55721;DHT22;41626;53.098;6.168;2022-07-15T11:59:32;20.30;99.90
55721;DHT22;41626;53.098;6.168;2022-07-15T12:02:12;20.50;99.90
55721;DHT22;41626;53.098;6.168;2022-07-15T12:04:39;20.20;99.90
55721;DHT22;41626;53.098;6.168;2022-07-15T12:07:06;19.80;99.90
55721;DHT22;41626;53.098;6.168;2022-07-15T12:09:43;19.60;99.90
55721;DHT22;41626;53.098;6.168;2022-07-15T12:12:09;19.30;99.90
55721;DHT22;41626;53.098;6.168;2022-07-15T12:14:36;19.10;99.90
55721;DHT22;41626;53.098;6.168;2022-07-15T12:17:02;18.90;99.90
55721;DHT22;41626;53.098;6.168;2022-07-15T12:19:31;18.70;99.90
55721;DHT22;41626;53.098;6.168;2022-07-15T12:22:00;18.80;99.90
55721;DHT22;41626;53.098;6.168;2022-07-15T12:24:42;18.90;99.90
55721;DHT22;41626;53.098;6.168;2022-07-15T12:27:11;19.10;99.90
55721;DHT22;41626;53.098;6.168;2022-07-15T12:29:37;19.40;99.90
55721;DHT22;41626;53.098;6.168;2022-07-15T12:32:09;19.50;99.90
55721;DHT22;41626;53.098;6.168;2022-07-15T12:35:02;19.40;99.90
55721;DHT22;41626;53.098;6.168;2022-07-15T12:37:47;19.30;99.90
55721;DHT22;41626;53.098;6.168;2022-07-15T12:40:21;19.30;99.90
55721;DHT22;41626;53.098;6.168;2022-07-15T12:42:50;19.40;99.90
55721;DHT22;41626;53.098;6.168;2022-07-15T12:45:28;19.30;99.90
55721;DHT22;41626;53.098;6.168;2022-07-15T12:50:31;19.30;99.90
55721;DHT22;41626;53.098;6.168;2022-07-15T12:52:58;19.40;99.90
55721;DHT22;41626;53.098;6.168;2022-07-15T12:55:29;19.50;99.90
55721;DHT22;41626;53.098;6.168;2022-07-15T12:58:05;20.10;99.90
55721;DHT22;41626;53.098;6.168;2022-07-15T13:00:31;20.30;99.90
55721;DHT22;41626;53.098;6.168;2022-07-15T13:03:07;19.80;99.90
55721;DHT22;41626;53.098;6.168;2022-07-15T13:08:11;19.40;99.90
55721;DHT22;41626;53.098;6.168;2022-07-15T13:10:44;19.40;99.90
55721;DHT22;41626;53.098;6.168;2022-07-15T13:13:18;19.30;99.90
55721;DHT22;41626;53.098;6.168;2022-07-15T13:15:45;19.50;99.90
55721;DHT22;41626;53.098;6.168;2022-07-15T13:18:12;19.40;99.90
55721;DHT22;41626;53.098;6.168;2022-07-15T13:20:39;19.20;99.90
55721;DHT22;41626;53.098;6.168;2022-07-15T13:23:06;19.20;99.90
55721;DHT22;41626;53.098;6.168;2022-07-15T13:25:32;19.10;99.90
55721;DHT22;41626;53.098;6.168;2022-07-15T13:28:01;19.00;99.90
55721;DHT22;41626;53.098;6.168;2022-07-15T13:30:26;19.00;99.90
55721;DHT22;41626;53.098;6.168;2022-07-15T13:32:52;19.00;99.90
55721;DHT22;41626;53.098;6.168;2022-07-15T13:35:18;19.00;99.90
55721;DHT22;41626;53.098;6.168;2022-07-15T13:37:44;19.00;99.90
55721;DHT22;41626;53.098;6.168;2022-07-15T13:40:12;19.10;99.90
55721;DHT22;41626;53.098;6.168;2022-07-15T13:42:38;19.20;99.90
55721;DHT22;41626;53.098;6.168;2022-07-15T13:45:05;19.40;99.90
55721;DHT22;41626;53.098;6.168;2022-07-15T13:47:31;19.90;99.90
55721;DHT22;41626;53.098;6.168;2022-07-15T13:49:57;20.20;99.90
55721;DHT22;41626;53.098;6.168;2022-07-15T13:52:48;20.70;99.90
55721;DHT22;41626;53.098;6.168;2022-07-15T13:55:15;20.90;99.90
55721;DHT22;41626;53.098;6.168;2022-07-15T13:57:42;20.70;99.90
55721;DHT22;41626;53.098;6.168;2022-07-15T14:00:11;20.40;99.90
55721;DHT22;41626;53.098;6.168;2022-07-15T14:02:38;20.40;99.90
55721;DHT22;41626;53.098;6.168;2022-07-15T14:05:04;20.10;99.90
55721;DHT22;41626;53.098;6.168;2022-07-15T14:07:31;20.10;99.90
55721;DHT22;41626;53.098;6.168;2022-07-15T14:09:57;20.40;99.90
55721;DHT22;41626;53.098;6.168;2022-07-15T14:12:22;20.50;99.90
55721;DHT22;41626;53.098;6.168;2022-07-15T14:14:48;20.40;99.90
55721;DHT22;41626;53.098;6.168;2022-07-15T14:17:15;20.40;99.90
55721;DHT22;41626;53.098;6.168;2022-07-15T14:19:41;20.40;99.90
55721;DHT22;41626;53.098;6.168;2022-07-15T14:22:06;20.40;99.90
55721;DHT22;41626;53.098;6.168;2022-07-15T14:24:32;20.40;99.90
55721;DHT22;41626;53.098;6.168;2022-07-15T14:26:57;20.30;99.90
55721;DHT22;41626;53.098;6.168;2022-07-15T14:29:23;20.30;99.90
55721;DHT22;41626;53.098;6.168;2022-07-15T14:31:49;20.20;99.90
55721;DHT22;41626;53.098;6.168;2022-07-15T14:34:15;20.20;99.90
55721;DHT22;41626;53.098;6.168;2022-07-15T14:36:40;20.20;99.90
55721;DHT22;41626;53.098;6.168;2022-07-15T14:39:07;20.10;99.90
55721;DHT22;41626;53.098;6.168;2022-07-15T14:41:32;20.10;99.90
55721;DHT22;41626;53.098;6.168;2022-07-15T14:43:59;20.30;99.90
55721;DHT22;41626;53.098;6.168;2022-07-15T14:46:25;20.10;99.90
55721;DHT22;41626;53.098;6.168;2022-07-15T14:48:50;20.10;99.90
55721;DHT22;41626;53.098;6.168;2022-07-15T14:51:16;20.10;99.90
55721;DHT22;41626;53.098;6.168;2022-07-15T14:53:42;20.10;99.90
55721;DHT22;41626;53.098;6.168;2022-07-15T14:56:08;19.80;99.90
55721;DHT22;41626;53.098;6.168;2022-07-15T14:58:33;20.00;99.90
55721;DHT22;41626;53.098;6.168;2022-07-15T15:00:59;20.00;99.90
55721;DHT22;41626;53.098;6.168;2022-07-15T15:03:24;20.00;99.90
55721;DHT22;41626;53.098;6.168;2022-07-15T15:05:50;20.00;99.90
55721;DHT22;41626;53.098;6.168;2022-07-15T15:08:16;20.10;99.90
55721;DHT22;41626;53.098;6.168;2022-07-15T15:10:42;20.00;99.90
55721;DHT22;41626;53.098;6.168;2022-07-15T15:13:08;19.90;99.90
55721;DHT22;41626;53.098;6.168;2022-07-15T15:15:34;20.00;99.90
55721;DHT22;41626;53.098;6.168;2022-07-15T15:17:59;20.00;99.90
55721;DHT22;41626;53.098;6.168;2022-07-15T15:20:25;20.00;99.90
55721;DHT22;41626;53.098;6.168;2022-07-15T15:22:51;19.90;99.90
55721;DHT22;41626;53.098;6.168;2022-07-15T15:25:17;19.90;99.90
55721;DHT22;41626;53.098;6.168;2022-07-15T15:28:02;19.80;99.90
55721;DHT22;41626;53.098;6.168;2022-07-15T15:30:28;19.90;99.90
55721;DHT22;41626;53.098;6.168;2022-07-15T15:32:54;19.90;99.90
55721;DHT22;41626;53.098;6.168;2022-07-15T15:35:20;20.00;99.90
55721;DHT22;41626;53.098;6.168;2022-07-15T15:37:45;20.00;99.90
55721;DHT22;41626;53.098;6.168;2022-07-15T15:40:11;19.90;99.90
55721;DHT22;41626;53.098;6.168;2022-07-15T15:42:37;19.80;99.90
55721;DHT22;41626;53.098;6.168;2022-07-15T15:45:03;19.80;99.90
55721;DHT22;41626;53.098;6.168;2022-07-15T15:47:28;19.80;99.90
55721;DHT22;41626;53.098;6.168;2022-07-15T15:49:54;19.90;99.90
55721;DHT22;41626;53.098;6.168;2022-07-15T15:52:20;19.90;99.90
55721;DHT22;41626;53.098;6.168;2022-07-15T15:54:45;19.80;99.90
55721;DHT22;41626;53.098;6.168;2022-07-15T15:57:11;19.90;99.90
55721;DHT22;41626;53.098;6.168;2022-07-15T15:59:37;19.80;99.90
55721;DHT22;41626;53.098;6.168;2022-07-15T16:02:03;19.80;99.90
55721;DHT22;41626;53.098;6.168;2022-07-15T16:04:29;19.90;99.90
55721;DHT22;41626;53.098;6.168;2022-07-15T16:06:54;20.20;99.90
55721;DHT22;41626;53.098;6.168;2022-07-15T16:09:20;20.20;99.90
55721;DHT22;41626;53.098;6.168;2022-07-15T16:11:46;19.90;99.90
55721;DHT22;41626;53.098;6.168;2022-07-15T16:14:12;20.10;99.90
55721;DHT22;41626;53.098;6.168;2022-07-15T16:16:38;20.00;99.90